sensor_id;sensor_type;location;lat;lon;timestamp;P1;durP1;ratioP1;P2;durP2;ratioP2
25443;SDS011;13368;52.346;4.678;2023-05-07T00:00:00;31.3;;;19.5;;
25443;SDS011;13368;52.346;4.678;2023-05-07T00:05:00;29.2;;;18.8;;
25443;SDS011;13368;52.346;4.678;2023-05-07T00:10:00;28.8;;;19.2;;
25443;SDS011;13368;52.346;4.678;2023-05-07T00:15:00;28.3;;;18.7;;
25443;SDS011;13368;52.346;4.678;2023-05-07T00:20:00;27.9;;;18.1;;
25443;SDS011;13368;52.346;4.678;2023-05-07T00:25:00;26.6;;;18.3;;
25443;SDS011;13368;52.346;4.678;2023-05-07T00:30:00;28.0;;;18.2;;
25443;SDS011;13368;52.346;4.678;2023-05-07T00:35:00;28.1;;;18.3;;
25443;SDS011;13368;52.346;4.678;2023-05-07T00:40:00;30.6;;;19.7;;
25443;SDS011;13368;52.346;4.678;2023-05-07T00:45:00;33.1;;;20.8;;
25443;SDS011;13368;52.346;4.678;2023-05-07T00:50:00;32.4;;;20.8;;
25443;SDS011;13368;52.346;4.678;2023-05-07T00:55:00;36.9;;;22.9;;
25443;SDS011;13368;52.346;4.678;2023-05-07T01:00:00;42.9;;;24.2;;
25443;SDS011;13368;52.346;4.678;2023-05-07T01:05:00;39.5;;;24.5;;
25443;SDS011;13368;52.346;4.678;2023-05-07T01:10:00;39.7;;;25.1;;
25443;SDS011;13368;52.346;4.678;2023-05-07T01:15:00;45.9;;;27.1;;
25443;SDS011;13368;52.346;4.678;2023-05-07T01:20:00;41.7;;;25.3;;
25443;SDS011;13368;52.346;4.678;2023-05-07T01:25:00;45.8;;;27.3;;
25443;SDS011;13368;52.346;4.678;2023-05-07T01:30:00;44.6;;;25.8;;
25443;SDS011;13368;52.346;4.678;2023-05-07T01:35:00;42.5;;;25.8;;
25443;SDS011;13368;52.346;4.678;2023-05-07T01:40:00;43.1;;;25.7;;
25443;SDS011;13368;52.346;4.678;2023-05-07T01:45:00;41.2;;;25.4;;
25443;SDS011;13368;52.346;4.678;2023-05-07T01:50:00;45.3;;;27.3;;
25443;SDS011;13368;52.346;4.678;2023-05-07T01:55:00;46.0;;;27.1;;
25443;SDS011;13368;52.346;4.678;2023-05-07T02:00:00;45.8;;;27.6;;
25443;SDS011;13368;52.346;4.678;2023-05-07T02:05:00;48.1;;;28.5;;
25443;SDS011;13368;52.346;4.678;2023-05-07T02:10:00;47.0;;;28.0;;
25443;SDS011;13368;52.346;4.678;2023-05-07T02:15:00;51.9;;;29.6;;
25443;SDS011;13368;52.346;4.678;2023-05-07T02:20:00;46.3;;;27.8;;
25443;SDS011;13368;52.346;4.678;2023-05-07T02:25:00;45.4;;;27.6;;
25443;SDS011;13368;52.346;4.678;2023-05-07T02:30:00;47.0;;;27.6;;
25443;SDS011;13368;52.346;4.678;2023-05-07T02:35:00;45.3;;;26.7;;
25443;SDS011;13368;52.346;4.678;2023-05-07T02:40:00;41.9;;;26.2;;
25443;SDS011;13368;52.346;4.678;2023-05-07T02:45:00;41.4;;;25.8;;
25443;SDS011;13368;52.346;4.678;2023-05-07T02:50:00;38.4;;;24.1;;
25443;SDS011;13368;52.346;4.678;2023-05-07T02:55:00;39.9;;;25.0;;
25443;SDS011;13368;52.346;4.678;2023-05-07T03:00:06;35.7;;;23.0;;
25443;SDS011;13368;52.346;4.678;2023-05-07T03:05:00;34.3;;;22.7;;
25443;SDS011;13368;52.346;4.678;2023-05-07T03:10:00;34.1;;;21.6;;
25443;SDS011;13368;52.346;4.678;2023-05-07T03:15:00;32.4;;;20.7;;
25443;SDS011;13368;52.346;4.678;2023-05-07T03:20:00;37.3;;;21.7;;
25443;SDS011;13368;52.346;4.678;2023-05-07T03:25:00;30.8;;;20.5;;
25443;SDS011;13368;52.346;4.678;2023-05-07T03:30:00;30.0;;;19.1;;
25443;SDS011;13368;52.346;4.678;2023-05-07T03:35:00;26.6;;;17.1;;
25443;SDS011;13368;52.346;4.678;2023-05-07T03:40:00;22.1;;;16.5;;
25443;SDS011;13368;52.346;4.678;2023-05-07T03:45:00;23.2;;;15.9;;
25443;SDS011;13368;52.346;4.678;2023-05-07T03:50:00;22.8;;;14.6;;
25443;SDS011;13368;52.346;4.678;2023-05-07T03:55:00;19.7;;;13.6;;
25443;SDS011;13368;52.346;4.678;2023-05-07T04:00:00;20.1;;;13.7;;
25443;SDS011;13368;52.346;4.678;2023-05-07T04:05:00;21.0;;;13.6;;
25443;SDS011;13368;52.346;4.678;2023-05-07T04:10:00;20.5;;;13.5;;
25443;SDS011;13368;52.346;4.678;2023-05-07T04:15:00;18.3;;;13.0;;
25443;SDS011;13368;52.346;4.678;2023-05-07T04:20:00;19.6;;;12.8;;
25443;SDS011;13368;52.346;4.678;2023-05-07T04:25:00;18.6;;;12.9;;
25443;SDS011;13368;52.346;4.678;2023-05-07T04:30:00;17.9;;;11.9;;
25443;SDS011;13368;52.346;4.678;2023-05-07T04:35:00;19.1;;;12.3;;
25443;SDS011;13368;52.346;4.678;2023-05-07T04:40:00;18.2;;;12.4;;
25443;SDS011;13368;52.346;4.678;2023-05-07T04:45:00;17.4;;;12.3;;
25443;SDS011;13368;52.346;4.678;2023-05-07T04:50:00;16.9;;;12.2;;
25443;SDS011;13368;52.346;4.678;2023-05-07T04:55:00;16.9;;;11.2;;
25443;SDS011;13368;52.346;4.678;2023-05-07T05:00:00;16.2;;;11.7;;
25443;SDS011;13368;52.346;4.678;2023-05-07T05:05:00;15.6;;;11.5;;
25443;SDS011;13368;52.346;4.678;2023-05-07T05:10:01;16.6;;;11.9;;
25443;SDS011;13368;52.346;4.678;2023-05-07T05:15:00;17.6;;;12.2;;
25443;SDS011;13368;52.346;4.678;2023-05-07T05:20:00;19.5;;;12.3;;
25443;SDS011;13368;52.346;4.678;2023-05-07T05:25:00;17.9;;;12.4;;
25443;SDS011;13368;52.346;4.678;2023-05-07T05:30:00;17.0;;;12.2;;
25443;SDS011;13368;52.346;4.678;2023-05-07T05:35:00;20.6;;;13.1;;
25443;SDS011;13368;52.346;4.678;2023-05-07T05:40:00;19.9;;;12.9;;
25443;SDS011;13368;52.346;4.678;2023-05-07T05:45:00;19.8;;;13.2;;
25443;SDS011;13368;52.346;4.678;2023-05-07T05:50:00;20.5;;;13.7;;
25443;SDS011;13368;52.346;4.678;2023-05-07T05:55:00;19.9;;;14.2;;
25443;SDS011;13368;52.346;4.678;2023-05-07T06:00:00;21.9;;;14.1;;
25443;SDS011;13368;52.346;4.678;2023-05-07T06:05:00;22.7;;;14.2;;
25443;SDS011;13368;52.346;4.678;2023-05-07T06:10:00;23.2;;;15.2;;
25443;SDS011;13368;52.346;4.678;2023-05-07T06:15:00;22.5;;;15.9;;
25443;SDS011;13368;52.346;4.678;2023-05-07T06:20:00;24.2;;;16.0;;
25443;SDS011;13368;52.346;4.678;2023-05-07T06:25:00;24.8;;;17.5;;
25443;SDS011;13368;52.346;4.678;2023-05-07T06:30:00;27.1;;;17.8;;
25443;SDS011;13368;52.346;4.678;2023-05-07T06:35:00;26.8;;;17.7;;
25443;SDS011;13368;52.346;4.678;2023-05-07T06:40:00;31.4;;;20.1;;
25443;SDS011;13368;52.346;4.678;2023-05-07T06:45:00;28.3;;;19.7;;
25443;SDS011;13368;52.346;4.678;2023-05-07T06:50:00;27.9;;;19.3;;
25443;SDS011;13368;52.346;4.678;2023-05-07T06:55:00;30.8;;;19.6;;
25443;SDS011;13368;52.346;4.678;2023-05-07T07:00:00;30.2;;;20.4;;
25443;SDS011;13368;52.346;4.678;2023-05-07T07:05:00;29.4;;;20.0;;
25443;SDS011;13368;52.346;4.678;2023-05-07T07:10:00;29.2;;;19.9;;
25443;SDS011;13368;52.346;4.678;2023-05-07T07:15:00;27.3;;;19.2;;
25443;SDS011;13368;52.346;4.678;2023-05-07T07:20:00;26.1;;;18.1;;
25443;SDS011;13368;52.346;4.678;2023-05-07T07:25:00;26.4;;;18.3;;
25443;SDS011;13368;52.346;4.678;2023-05-07T07:30:00;22.8;;;16.3;;
25443;SDS011;13368;52.346;4.678;2023-05-07T07:35:00;25.1;;;17.6;;
25443;SDS011;13368;52.346;4.678;2023-05-07T07:40:00;22.3;;;15.0;;
25443;SDS011;13368;52.346;4.678;2023-05-07T07:45:00;22.3;;;16.1;;
25443;SDS011;13368;52.346;4.678;2023-05-07T07:50:00;21.7;;;15.2;;
25443;SDS011;13368;52.346;4.678;2023-05-07T07:55:00;22.5;;;15.8;;
25443;SDS011;13368;52.346;4.678;2023-05-07T08:00:00;23.3;;;16.1;;
25443;SDS011;13368;52.346;4.678;2023-05-07T08:05:00;19.9;;;15.4;;
25443;SDS011;13368;52.346;4.678;2023-05-07T08:10:00;22.9;;;16.2;;
25443;SDS011;13368;52.346;4.678;2023-05-07T08:15:00;22.1;;;14.5;;
25443;SDS011;13368;52.346;4.678;2023-05-07T08:20:00;22.1;;;14.9;;
25443;SDS011;13368;52.346;4.678;2023-05-07T08:25:00;23.2;;;15.2;;
25443;SDS011;13368;52.346;4.678;2023-05-07T08:30:00;18.3;;;13.2;;
25443;SDS011;13368;52.346;4.678;2023-05-07T08:35:00;20.8;;;14.5;;
25443;SDS011;13368;52.346;4.678;2023-05-07T08:40:00;17.8;;;12.7;;
25443;SDS011;13368;52.346;4.678;2023-05-07T08:45:00;17.9;;;12.7;;
25443;SDS011;13368;52.346;4.678;2023-05-07T08:50:00;20.4;;;14.5;;
25443;SDS011;13368;52.346;4.678;2023-05-07T08:55:00;20.2;;;13.4;;
25443;SDS011;13368;52.346;4.678;2023-05-07T09:00:00;18.9;;;13.6;;
25443;SDS011;13368;52.346;4.678;2023-05-07T09:05:00;16.9;;;12.6;;
25443;SDS011;13368;52.346;4.678;2023-05-07T09:10:01;18.2;;;12.6;;
25443;SDS011;13368;52.346;4.678;2023-05-07T09:15:00;17.4;;;13.2;;
25443;SDS011;13368;52.346;4.678;2023-05-07T09:20:02;16.2;;;11.7;;
25443;SDS011;13368;52.346;4.678;2023-05-07T09:25:00;19.8;;;12.7;;
25443;SDS011;13368;52.346;4.678;2023-05-07T09:30:02;14.5;;;10.2;;
25443;SDS011;13368;52.346;4.678;2023-05-07T09:35:00;13.9;;;10.0;;
25443;SDS011;13368;52.346;4.678;2023-05-07T09:40:00;11.9;;;8.7;;
25443;SDS011;13368;52.346;4.678;2023-05-07T09:45:00;13.3;;;9.4;;
25443;SDS011;13368;52.346;4.678;2023-05-07T09:50:00;15.7;;;10.4;;
25443;SDS011;13368;52.346;4.678;2023-05-07T09:55:00;14.9;;;11.4;;
25443;SDS011;13368;52.346;4.678;2023-05-07T10:00:00;15.5;;;10.8;;
25443;SDS011;13368;52.346;4.678;2023-05-07T10:05:00;13.1;;;9.5;;
25443;SDS011;13368;52.346;4.678;2023-05-07T10:10:00;12.4;;;8.6;;
25443;SDS011;13368;52.346;4.678;2023-05-07T10:15:00;13.9;;;9.4;;
25443;SDS011;13368;52.346;4.678;2023-05-07T10:20:00;13.4;;;9.5;;
25443;SDS011;13368;52.346;4.678;2023-05-07T10:25:00;11.6;;;9.6;;
25443;SDS011;13368;52.346;4.678;2023-05-07T10:30:02;12.2;;;8.7;;
25443;SDS011;13368;52.346;4.678;2023-05-07T10:35:01;14.2;;;10.2;;
25443;SDS011;13368;52.346;4.678;2023-05-07T10:40:00;14.1;;;9.6;;
25443;SDS011;13368;52.346;4.678;2023-05-07T11:00:00;12.1;;;9.5;;
25443;SDS011;13368;52.346;4.678;2023-05-07T11:10:02;13.0;;;9.6;;
25443;SDS011;13368;52.346;4.678;2023-05-07T11:15:00;13.5;;;9.0;;
25443;SDS011;13368;52.346;4.678;2023-05-07T11:20:00;13.8;;;8.8;;
25443;SDS011;13368;52.346;4.678;2023-05-07T11:25:00;11.6;;;9.1;;
25443;SDS011;13368;52.346;4.678;2023-05-07T11:30:00;12.3;;;9.9;;
25443;SDS011;13368;52.346;4.678;2023-05-07T11:35:00;10.4;;;5.9;;
25443;SDS011;13368;52.346;4.678;2023-05-07T11:40:03;10.4;;;5.9;;
25443;SDS011;13368;52.346;4.678;2023-05-07T11:45:00;8.4;;;5.0;;
25443;SDS011;13368;52.346;4.678;2023-05-07T11:50:02;10.6;;;5.3;;
25443;SDS011;13368;52.346;4.678;2023-05-07T11:55:00;7.0;;;4.2;;
25443;SDS011;13368;52.346;4.678;2023-05-07T12:00:00;7.6;;;4.5;;
25443;SDS011;13368;52.346;4.678;2023-05-07T12:05:00;6.8;;;4.8;;
25443;SDS011;13368;52.346;4.678;2023-05-07T12:10:03;7.6;;;5.0;;
25443;SDS011;13368;52.346;4.678;2023-05-07T12:15:00;7.1;;;4.3;;
25443;SDS011;13368;52.346;4.678;2023-05-07T12:20:00;6.6;;;3.7;;
25443;SDS011;13368;52.346;4.678;2023-05-07T12:25:00;10.8;;;4.2;;
25443;SDS011;13368;52.346;4.678;2023-05-07T12:30:00;7.1;;;4.4;;
25443;SDS011;13368;52.346;4.678;2023-05-07T12:35:00;8.6;;;5.3;;
25443;SDS011;13368;52.346;4.678;2023-05-07T12:40:03;9.4;;;5.5;;
25443;SDS011;13368;52.346;4.678;2023-05-07T12:45:00;10.6;;;5.6;;
25443;SDS011;13368;52.346;4.678;2023-05-07T12:50:00;9.8;;;5.3;;
25443;SDS011;13368;52.346;4.678;2023-05-07T12:55:04;8.6;;;6.4;;
25443;SDS011;13368;52.346;4.678;2023-05-07T13:00:00;17.1;;;11.4;;
25443;SDS011;13368;52.346;4.678;2023-05-07T13:05:00;16.2;;;10.3;;
25443;SDS011;13368;52.346;4.678;2023-05-07T13:10:00;17.1;;;12.3;;
25443;SDS011;13368;52.346;4.678;2023-05-07T13:15:00;17.5;;;13.1;;
25443;SDS011;13368;52.346;4.678;2023-05-07T13:20:00;20.8;;;14.5;;
25443;SDS011;13368;52.346;4.678;2023-05-07T13:25:00;23.2;;;15.6;;
25443;SDS011;13368;52.346;4.678;2023-05-07T13:30:00;22.0;;;15.3;;
25443;SDS011;13368;52.346;4.678;2023-05-07T13:35:00;25.4;;;16.2;;
25443;SDS011;13368;52.346;4.678;2023-05-07T13:40:00;24.6;;;16.0;;
25443;SDS011;13368;52.346;4.678;2023-05-07T13:45:00;20.6;;;16.5;;
25443;SDS011;13368;52.346;4.678;2023-05-07T13:50:00;23.7;;;16.3;;
25443;SDS011;13368;52.346;4.678;2023-05-07T13:55:00;25.2;;;17.2;;
25443;SDS011;13368;52.346;4.678;2023-05-07T14:00:00;24.2;;;16.9;;
25443;SDS011;13368;52.346;4.678;2023-05-07T14:05:00;20.5;;;13.3;;
25443;SDS011;13368;52.346;4.678;2023-05-07T14:10:00;22.4;;;13.7;;
25443;SDS011;13368;52.346;4.678;2023-05-07T14:15:00;20.0;;;13.5;;
25443;SDS011;13368;52.346;4.678;2023-05-07T14:20:00;22.7;;;14.0;;
25443;SDS011;13368;52.346;4.678;2023-05-07T14:25:00;21.9;;;13.6;;
25443;SDS011;13368;52.346;4.678;2023-05-07T14:30:00;21.9;;;11.4;;
25443;SDS011;13368;52.346;4.678;2023-05-07T14:35:00;17.9;;;11.4;;
25443;SDS011;13368;52.346;4.678;2023-05-07T14:40:00;15.9;;;11.4;;
25443;SDS011;13368;52.346;4.678;2023-05-07T14:45:00;18.3;;;11.9;;
25443;SDS011;13368;52.346;4.678;2023-05-07T14:50:00;17.8;;;13.3;;
25443;SDS011;13368;52.346;4.678;2023-05-07T14:55:00;20.1;;;14.1;;
25443;SDS011;13368;52.346;4.678;2023-05-07T15:00:00;22.9;;;16.1;;
25443;SDS011;13368;52.346;4.678;2023-05-07T15:05:00;25.9;;;17.2;;
25443;SDS011;13368;52.346;4.678;2023-05-07T15:10:00;27.0;;;18.3;;
25443;SDS011;13368;52.346;4.678;2023-05-07T15:15:00;32.3;;;20.4;;
25443;SDS011;13368;52.346;4.678;2023-05-07T15:20:00;31.6;;;22.5;;
25443;SDS011;13368;52.346;4.678;2023-05-07T15:25:00;27.0;;;18.2;;
25443;SDS011;13368;52.346;4.678;2023-05-07T15:30:00;20.4;;;14.4;;
25443;SDS011;13368;52.346;4.678;2023-05-07T15:35:00;20.3;;;14.7;;
25443;SDS011;13368;52.346;4.678;2023-05-07T15:40:00;18.3;;;14.0;;
25443;SDS011;13368;52.346;4.678;2023-05-07T15:45:00;20.6;;;13.4;;
25443;SDS011;13368;52.346;4.678;2023-05-07T15:50:00;18.2;;;13.0;;
25443;SDS011;13368;52.346;4.678;2023-05-07T15:55:00;17.2;;;12.3;;
25443;SDS011;13368;52.346;4.678;2023-05-07T16:00:00;27.2;;;19.3;;
25443;SDS011;13368;52.346;4.678;2023-05-07T16:05:00;17.7;;;12.6;;
25443;SDS011;13368;52.346;4.678;2023-05-07T16:10:00;17.3;;;13.0;;
25443;SDS011;13368;52.346;4.678;2023-05-07T16:15:00;19.9;;;13.5;;
25443;SDS011;13368;52.346;4.678;2023-05-07T16:20:01;16.8;;;12.4;;
25443;SDS011;13368;52.346;4.678;2023-05-07T16:25:00;17.4;;;13.4;;
25443;SDS011;13368;52.346;4.678;2023-05-07T16:30:00;16.8;;;12.7;;
25443;SDS011;13368;52.346;4.678;2023-05-07T16:35:00;18.2;;;13.4;;
25443;SDS011;13368;52.346;4.678;2023-05-07T16:40:00;20.9;;;13.7;;
25443;SDS011;13368;52.346;4.678;2023-05-07T16:45:00;17.9;;;13.6;;
25443;SDS011;13368;52.346;4.678;2023-05-07T16:50:00;25.0;;;18.3;;
25443;SDS011;13368;52.346;4.678;2023-05-07T16:55:00;28.4;;;19.9;;
25443;SDS011;13368;52.346;4.678;2023-05-07T17:00:00;29.6;;;20.4;;
25443;SDS011;13368;52.346;4.678;2023-05-07T17:05:00;31.2;;;20.3;;
25443;SDS011;13368;52.346;4.678;2023-05-07T17:10:00;26.4;;;19.5;;
25443;SDS011;13368;52.346;4.678;2023-05-07T17:15:00;30.7;;;20.4;;
25443;SDS011;13368;52.346;4.678;2023-05-07T17:20:00;32.1;;;20.2;;
25443;SDS011;13368;52.346;4.678;2023-05-07T17:25:00;29.0;;;21.1;;
25443;SDS011;13368;52.346;4.678;2023-05-07T17:30:00;28.3;;;18.4;;
25443;SDS011;13368;52.346;4.678;2023-05-07T17:35:00;20.5;;;14.8;;
25443;SDS011;13368;52.346;4.678;2023-05-07T17:40:00;22.3;;;14.7;;
25443;SDS011;13368;52.346;4.678;2023-05-07T17:45:00;18.2;;;12.0;;
25443;SDS011;13368;52.346;4.678;2023-05-07T17:50:00;32.5;;;21.5;;
25443;SDS011;13368;52.346;4.678;2023-05-07T17:55:00;31.3;;;21.2;;
25443;SDS011;13368;52.346;4.678;2023-05-07T18:00:00;28.4;;;20.3;;
25443;SDS011;13368;52.346;4.678;2023-05-07T18:05:00;39.6;;;27.2;;
25443;SDS011;13368;52.346;4.678;2023-05-07T18:10:00;43.0;;;27.8;;
25443;SDS011;13368;52.346;4.678;2023-05-07T18:15:00;40.2;;;26.6;;
25443;SDS011;13368;52.346;4.678;2023-05-07T18:20:00;39.0;;;27.9;;
25443;SDS011;13368;52.346;4.678;2023-05-07T18:25:00;42.1;;;27.9;;
25443;SDS011;13368;52.346;4.678;2023-05-07T18:30:00;40.5;;;27.4;;
25443;SDS011;13368;52.346;4.678;2023-05-07T18:35:00;42.0;;;28.5;;
25443;SDS011;13368;52.346;4.678;2023-05-07T18:40:00;43.7;;;28.7;;
25443;SDS011;13368;52.346;4.678;2023-05-07T18:45:00;44.7;;;29.2;;
25443;SDS011;13368;52.346;4.678;2023-05-07T18:50:00;42.2;;;28.0;;
25443;SDS011;13368;52.346;4.678;2023-05-07T18:55:00;43.1;;;28.6;;
25443;SDS011;13368;52.346;4.678;2023-05-07T19:00:00;41.9;;;27.2;;
25443;SDS011;13368;52.346;4.678;2023-05-07T19:05:00;44.2;;;29.2;;
25443;SDS011;13368;52.346;4.678;2023-05-07T19:10:00;41.9;;;28.7;;
25443;SDS011;13368;52.346;4.678;2023-05-07T19:15:00;44.2;;;29.5;;
25443;SDS011;13368;52.346;4.678;2023-05-07T19:20:00;44.7;;;30.1;;
25443;SDS011;13368;52.346;4.678;2023-05-07T19:25:00;42.3;;;29.4;;
25443;SDS011;13368;52.346;4.678;2023-05-07T19:30:00;43.5;;;29.1;;
25443;SDS011;13368;52.346;4.678;2023-05-07T19:35:00;44.7;;;31.2;;
25443;SDS011;13368;52.346;4.678;2023-05-07T19:40:00;45.2;;;29.8;;
25443;SDS011;13368;52.346;4.678;2023-05-07T19:45:00;45.8;;;30.9;;
25443;SDS011;13368;52.346;4.678;2023-05-07T19:50:00;46.2;;;30.2;;
25443;SDS011;13368;52.346;4.678;2023-05-07T19:55:00;47.3;;;31.4;;
25443;SDS011;13368;52.346;4.678;2023-05-07T20:00:00;46.0;;;30.2;;
25443;SDS011;13368;52.346;4.678;2023-05-07T20:05:00;46.0;;;30.7;;
25443;SDS011;13368;52.346;4.678;2023-05-07T20:10:00;43.8;;;29.4;;
25443;SDS011;13368;52.346;4.678;2023-05-07T20:15:00;47.9;;;31.4;;
25443;SDS011;13368;52.346;4.678;2023-05-07T20:20:00;45.4;;;30.1;;
25443;SDS011;13368;52.346;4.678;2023-05-07T20:25:02;46.1;;;30.8;;
25443;SDS011;13368;52.346;4.678;2023-05-07T20:30:00;49.3;;;32.6;;
25443;SDS011;13368;52.346;4.678;2023-05-07T20:35:00;47.7;;;30.7;;
25443;SDS011;13368;52.346;4.678;2023-05-07T20:40:00;45.8;;;31.8;;
25443;SDS011;13368;52.346;4.678;2023-05-07T20:45:00;47.4;;;30.3;;
25443;SDS011;13368;52.346;4.678;2023-05-07T20:50:00;49.9;;;31.5;;
25443;SDS011;13368;52.346;4.678;2023-05-07T20:55:00;50.2;;;32.6;;
25443;SDS011;13368;52.346;4.678;2023-05-07T21:00:00;47.0;;;31.7;;
25443;SDS011;13368;52.346;4.678;2023-05-07T21:05:00;49.3;;;32.1;;
25443;SDS011;13368;52.346;4.678;2023-05-07T21:10:00;49.1;;;32.5;;
25443;SDS011;13368;52.346;4.678;2023-05-07T21:15:00;51.2;;;33.9;;
25443;SDS011;13368;52.346;4.678;2023-05-07T21:20:00;50.9;;;33.0;;
25443;SDS011;13368;52.346;4.678;2023-05-07T21:25:00;48.6;;;33.0;;
25443;SDS011;13368;52.346;4.678;2023-05-07T21:30:00;49.6;;;32.6;;
25443;SDS011;13368;52.346;4.678;2023-05-07T21:35:00;51.2;;;32.6;;
25443;SDS011;13368;52.346;4.678;2023-05-07T21:40:00;50.4;;;31.9;;
25443;SDS011;13368;52.346;4.678;2023-05-07T21:45:00;51.6;;;32.0;;
25443;SDS011;13368;52.346;4.678;2023-05-07T21:50:00;50.5;;;33.1;;
25443;SDS011;13368;52.346;4.678;2023-05-07T21:55:00;51.2;;;31.2;;
25443;SDS011;13368;52.346;4.678;2023-05-07T22:00:00;53.1;;;34.0;;
25443;SDS011;13368;52.346;4.678;2023-05-07T22:05:00;51.9;;;32.6;;
25443;SDS011;13368;52.346;4.678;2023-05-07T22:10:00;51.2;;;32.8;;
25443;SDS011;13368;52.346;4.678;2023-05-07T22:15:00;54.4;;;33.6;;
25443;SDS011;13368;52.346;4.678;2023-05-07T22:20:00;53.0;;;34.6;;
25443;SDS011;13368;52.346;4.678;2023-05-07T22:25:00;52.7;;;32.7;;
25443;SDS011;13368;52.346;4.678;2023-05-07T22:30:00;55.2;;;33.8;;
25443;SDS011;13368;52.346;4.678;2023-05-07T22:35:00;49.8;;;32.8;;
25443;SDS011;13368;52.346;4.678;2023-05-07T22:40:00;49.8;;;31.9;;
25443;SDS011;13368;52.346;4.678;2023-05-07T22:45:00;49.1;;;31.6;;
25443;SDS011;13368;52.346;4.678;2023-05-07T22:50:00;53.9;;;32.6;;
25443;SDS011;13368;52.346;4.678;2023-05-07T22:55:00;48.1;;;32.0;;
25443;SDS011;13368;52.346;4.678;2023-05-07T23:00:00;50.5;;;33.2;;
25443;SDS011;13368;52.346;4.678;2023-05-07T23:05:00;50.8;;;31.8;;
25443;SDS011;13368;52.346;4.678;2023-05-07T23:10:00;44.2;;;30.0;;
25443;SDS011;13368;52.346;4.678;2023-05-07T23:15:00;44.7;;;28.9;;
25443;SDS011;13368;52.346;4.678;2023-05-07T23:20:00;41.3;;;28.2;;
25443;SDS011;13368;52.346;4.678;2023-05-07T23:25:00;45.5;;;29.1;;
25443;SDS011;13368;52.346;4.678;2023-05-07T23:30:00;44.3;;;28.5;;
25443;SDS011;13368;52.346;4.678;2023-05-07T23:35:00;39.9;;;28.4;;
25443;SDS011;13368;52.346;4.678;2023-05-07T23:40:00;44.0;;;27.6;;
25443;SDS011;13368;52.346;4.678;2023-05-07T23:45:00;41.7;;;27.7;;
25443;SDS011;13368;52.346;4.678;2023-05-07T23:50:00;40.0;;;27.5;;
25443;SDS011;13368;52.346;4.678;2023-05-07T23:55:00;40.4;;;26.9;;
